Terminal Aerodrome Forecast
Issued by NWS

Home | Current Version | Previous Version | Text Only | Print | Product List | Glossary Off
Versions: 1 2 3 4 5 6 7 8 9 10 11 12 13 14 15 16

000
FTUS43 KICT 142300
TAFHUT
TAF
KHUT 142322Z 1500/1524 18016G23KT P6SM SCT200
     FM150100 17010KT P6SM SCT200
     FM151400 23009KT P6SM BKN130
     FM151800 35010KT P6SM VCSH OVC030=

USA.gov is the U.S. government's official web portal to all federal, state and local government web resources and services.